createdAt,value
2022-09-22T07:04:13.088Z,11.05
2022-09-22T07:05:17.488Z,11.11
2022-09-22T07:21:27.607Z,13.14
2022-09-22T07:22:28.960Z,13.21
2022-09-22T07:23:30.438Z,13.19
2022-09-22T07:24:31.969Z,13.30
2022-09-22T07:34:45.127Z,14.81
2022-09-22T07:35:46.554Z,15.39
2022-09-22T07:36:49.246Z,15.51
2022-09-22T07:37:56.795Z,15.89
2022-09-22T07:39:03.637Z,15.10
2022-09-22T07:49:22.150Z,15.97
2022-09-22T07:50:23.506Z,16.49
2022-09-22T07:51:26.524Z,16.97
2022-09-22T07:52:33.763Z,16.50
2022-09-22T07:53:35.964Z,16.15
2022-09-22T07:54:39.640Z,16.63
2022-09-22T07:55:41.580Z,16.30
2022-09-22T07:56:44.968Z,15.79
2022-09-22T07:57:56.445Z,14.93
2022-09-22T07:58:57.844Z,16.52
2022-09-22T07:59:59.548Z,17.17
2022-09-22T08:01:10.933Z,17.36
2022-09-22T08:02:12.389Z,17.28
2022-09-22T08:03:13.791Z,17.28
2022-09-22T08:04:18.737Z,17.19
2022-09-22T08:05:20.660Z,16.66
2022-09-22T08:06:23.821Z,16.71
2022-09-22T08:07:25.341Z,18.22
2022-09-22T08:08:27.110Z,16.68
2022-09-22T08:09:29.696Z,16.02
2022-09-22T08:10:33.802Z,14.72
2022-09-22T08:11:35.187Z,14.98
2022-09-22T08:12:37.765Z,15.00
2022-09-22T08:13:43.670Z,15.56
2022-09-22T08:14:47.160Z,16.28
2022-09-22T08:15:53.019Z,15.89
2022-09-22T08:16:54.498Z,15.68
2022-09-22T08:17:59.826Z,16.37
2022-09-22T08:19:10.657Z,16.68
2022-09-22T08:20:13.483Z,15.39
2022-09-22T08:21:19.023Z,15.29
2022-09-22T08:22:20.392Z,15.79
2022-09-22T08:23:21.776Z,16.30
2022-09-22T08:24:23.795Z,15.44
2022-09-22T08:25:25.458Z,15.12
2022-09-22T08:26:26.943Z,15.13
2022-09-22T08:27:29.742Z,15.67
2022-09-22T08:28:31.780Z,15.78
2022-09-22T08:29:33.211Z,16.79
2022-09-22T08:30:36.062Z,17.04
2022-09-22T08:31:41.078Z,16.69
2022-09-22T08:32:43.015Z,16.18
2022-09-22T08:33:44.344Z,17.11
2022-09-22T08:34:46.037Z,16.32
2022-09-22T08:35:54.472Z,15.89
2022-09-22T08:36:56.002Z,15.08
2022-09-22T08:37:57.335Z,14.98
2022-09-22T08:39:03.630Z,15.40
2022-09-22T08:40:06.211Z,15.57
2022-09-22T08:41:29.811Z,15.44
2022-09-22T08:42:34.022Z,14.62
2022-09-22T08:43:35.543Z,14.52
2022-09-22T08:45:04.290Z,14.94
2022-09-22T08:46:05.948Z,15.18
2022-09-22T08:47:16.274Z,15.52
2022-09-22T08:48:43.206Z,15.51
2022-09-22T08:50:09.964Z,15.13
2022-09-22T08:51:45.876Z,15.65
2022-09-22T08:52:54.964Z,16.06
2022-09-22T08:53:59.714Z,16.15
2022-09-22T08:55:11.218Z,14.93
2022-09-22T08:56:24.396Z,15.18
2022-09-22T08:57:36.870Z,15.27
2022-09-22T08:58:56.216Z,14.34
2022-09-22T09:00:19.046Z,15.12
2022-09-22T09:01:45.565Z,15.25
2022-09-22T09:03:17.400Z,14.65
2022-09-22T09:04:43.886Z,15.01
2022-09-22T09:06:32.991Z,14.87
2022-09-22T09:07:49.298Z,15.17
2022-09-22T09:09:09.309Z,15.61
2022-09-22T09:10:41.840Z,16.03
2022-09-22T09:30:09.932Z,17.67
2022-09-22T09:31:28.961Z,17.81
2022-09-22T09:32:40.116Z,17.27
2022-09-22T09:33:58.509Z,18.86
2022-09-22T09:35:02.219Z,20.29
2022-09-22T09:47:51.628Z,19.24
2022-09-22T09:49:16.748Z,20.90
2022-09-22T09:50:19.182Z,21.11
2022-09-22T09:51:20.567Z,19.59
2022-09-22T09:58:05.148Z,21.52
2022-09-22T10:08:50.747Z,21.40
2022-09-22T10:09:53.775Z,20.95
2022-09-22T10:10:59.298Z,21.84
2022-09-22T10:12:04.167Z,22.78
2022-09-22T10:13:05.493Z,23.34
2022-09-22T10:14:23.372Z,21.44
2022-09-22T10:15:26.418Z,21.19
2022-09-22T10:16:30.580Z,18.77
2022-09-22T10:17:42.569Z,19.04
2022-09-22T10:18:44.034Z,21.11
2022-09-22T10:19:45.461Z,22.50
2022-09-22T10:21:15.290Z,22.88
2022-09-22T10:32:03.086Z,19.93
2022-09-22T10:33:15.890Z,22.15
2022-09-22T10:34:35.357Z,20.20
2022-09-22T10:35:36.975Z,19.36
2022-09-22T10:36:45.606Z,19.66
2022-09-22T10:37:48.392Z,19.23
2022-09-22T10:38:50.014Z,19.42
2022-09-22T10:40:01.285Z,19.70
2022-09-22T10:41:08.802Z,19.63
2022-09-22T10:42:34.475Z,21.19
2022-09-22T10:44:34.653Z,22.32
2022-09-22T10:57:40.085Z,24.35
2022-09-22T10:58:44.789Z,25.48
2022-09-22T11:00:10.727Z,25.25
2022-09-22T11:01:27.313Z,24.92
2022-09-22T11:03:04.150Z,24.83
2022-09-22T11:04:27.416Z,23.77
2022-09-22T11:05:59.707Z,23.54
2022-09-22T11:07:25.967Z,24.35
2022-09-22T11:08:51.908Z,25.08
2022-09-22T11:10:17.784Z,21.81
2022-09-22T11:11:46.008Z,20.75
2022-09-22T11:33:18.974Z,21.48
2022-09-22T11:34:35.542Z,23.50
2022-09-22T11:36:04.441Z,24.51
2022-09-22T11:37:27.566Z,24.72
2022-09-22T11:57:21.444Z,20.06
2022-09-22T11:58:27.076Z,19.84
2022-09-22T11:59:50.908Z,19.86
2022-09-22T12:01:13.064Z,17.77
2022-09-22T12:16:42.062Z,20.10
2022-09-22T12:18:02.681Z,20.69
2022-09-22T12:19:42.581Z,20.02
2022-09-22T12:21:00.871Z,18.33
2022-09-22T12:37:30.056Z,21.67
2022-09-22T12:38:32.194Z,23.00
2022-09-22T12:39:46.410Z,22.20
2022-09-22T12:40:51.284Z,23.27
2022-09-22T12:42:05.698Z,20.99
2022-09-22T12:43:15.809Z,21.61
2022-09-22T12:44:30.333Z,21.46
2022-09-22T12:45:37.492Z,21.28
2022-09-22T12:46:42.908Z,21.13
2022-09-22T12:47:49.740Z,19.99
2022-09-22T12:48:51.726Z,20.99
2022-09-22T12:49:57.341Z,22.49
2022-09-22T12:58:02.563Z,25.05
2022-09-22T12:59:23.877Z,24.87
2022-09-22T13:00:41.457Z,20.96
2022-09-22T13:01:43.204Z,19.45
2022-09-22T13:02:49.009Z,19.90
2022-09-22T13:03:51.126Z,19.77
2022-09-22T13:04:55.541Z,20.01
2022-09-22T13:06:22.852Z,20.04
2022-09-22T13:07:35.094Z,20.01
2022-09-22T13:08:56.404Z,20.39
2022-09-22T13:10:22.506Z,20.20
2022-09-22T13:12:08.920Z,20.23
2022-09-22T13:13:23.753Z,20.35
2022-09-22T13:14:59.247Z,21.29
2022-09-22T13:16:05.876Z,22.99
2022-09-22T13:17:32.366Z,21.07
2022-09-22T13:18:38.881Z,22.65
2022-09-22T13:19:55.066Z,22.96
2022-09-22T13:21:01.734Z,23.88
2022-09-22T13:22:17.723Z,23.26
2022-09-22T13:23:19.105Z,20.33
2022-09-22T13:24:24.992Z,18.48
2022-09-22T13:25:31.197Z,19.88
2022-09-22T13:26:39.344Z,20.07
2022-09-22T13:27:40.665Z,19.74
2022-09-22T13:28:43.099Z,19.85
2022-09-22T13:29:57.973Z,19.73
2022-09-22T13:31:13.015Z,19.70
2022-09-22T13:32:27.089Z,20.61
2022-09-22T13:39:05.490Z,17.81
2022-09-22T13:40:10.312Z,18.47
2022-09-22T13:41:19.549Z,18.68
2022-09-22T13:42:34.520Z,18.26
2022-09-22T13:43:39.454Z,18.20
2022-09-22T13:44:44.010Z,17.58
2022-09-22T13:50:22.348Z,20.97
2022-09-22T13:51:26.017Z,18.99
2022-09-22T13:52:32.689Z,18.84
2022-09-22T13:53:34.066Z,18.67
2022-09-22T13:54:37.497Z,19.63
2022-09-22T13:55:38.896Z,20.62
2022-09-22T14:02:04.406Z,22.17
2022-09-22T14:03:05.878Z,23.66
2022-09-22T14:04:21.587Z,24.42
2022-09-22T14:05:33.031Z,24.75
2022-09-22T14:06:34.514Z,23.37
2022-09-22T14:07:45.365Z,23.44
2022-09-22T14:08:52.860Z,24.13
2022-09-22T14:09:55.821Z,24.20
2022-09-22T14:10:59.444Z,24.65
2022-09-22T14:12:01.464Z,24.57
2022-09-22T14:13:02.887Z,23.94
2022-09-22T14:14:06.745Z,22.35
2022-09-22T14:15:33.455Z,20.28
2022-09-22T14:16:37.025Z,19.58
2022-09-22T14:17:40.681Z,19.09
2022-09-22T14:18:48.994Z,18.19
2022-09-22T14:20:02.230Z,18.90
2022-09-22T14:26:14.392Z,21.19
2022-09-22T14:27:51.724Z,18.54
2022-09-22T14:28:55.170Z,19.01
2022-09-22T14:29:57.978Z,18.97
2022-09-22T14:30:59.365Z,18.68
2022-09-22T14:32:25.809Z,19.42
2022-09-22T14:33:33.503Z,19.19
2022-09-22T14:34:35.096Z,18.76
2022-09-22T14:35:37.264Z,18.65
2022-09-22T14:36:39.312Z,19.74
2022-09-22T14:37:45.376Z,18.36
2022-09-22T14:39:03.247Z,17.95
2022-09-22T14:40:18.984Z,18.53
2022-09-22T14:41:25.586Z,18.45
2022-09-22T14:42:29.510Z,18.92
2022-09-22T14:43:38.851Z,19.69
2022-09-22T14:44:49.901Z,20.28
2022-09-22T14:46:07.310Z,19.63
2022-09-22T14:47:25.895Z,20.59
2022-09-22T14:48:28.878Z,21.32
2022-09-22T14:55:03.808Z,21.04
2022-09-22T14:56:32.745Z,22.72
2022-09-22T14:57:35.707Z,23.25
2022-09-22T14:58:40.799Z,22.03
2022-09-22T15:00:06.416Z,19.92
2022-09-22T15:01:45.137Z,19.39
2022-09-22T15:02:53.930Z,19.98
2022-09-22T15:04:06.117Z,20.16
2022-09-22T15:05:11.757Z,19.85
2022-09-22T15:06:14.489Z,19.66
2022-09-22T15:13:05.143Z,21.81
2022-09-22T15:14:42.668Z,21.95
2022-09-22T15:15:46.538Z,21.19
2022-09-22T15:16:48.022Z,20.30
2022-09-22T15:18:15.132Z,18.99
2022-09-22T15:19:16.479Z,19.45
2022-09-22T15:20:18.462Z,19.93
2022-09-22T15:21:51.748Z,18.68
2022-09-22T15:22:54.116Z,19.57
2022-09-22T15:23:58.812Z,19.55
2022-09-22T15:25:00.193Z,18.72
2022-09-22T15:26:06.005Z,19.41
2022-09-22T15:27:08.020Z,18.84
2022-09-22T15:28:19.642Z,19.38
2022-09-22T15:29:21.038Z,19.52
2022-09-22T15:30:22.437Z,19.39
2022-09-22T15:31:26.904Z,19.01
2022-09-22T15:32:29.060Z,19.50
2022-09-22T15:33:30.762Z,19.69
2022-09-22T15:34:32.142Z,20.23
2022-09-22T15:35:37.857Z,20.98
2022-09-22T15:36:45.770Z,21.49
2022-09-22T15:37:49.987Z,21.85
2022-09-22T15:38:57.904Z,21.42
2022-09-22T15:40:00.567Z,19.79
2022-09-22T15:41:01.928Z,19.62
2022-09-22T15:42:06.373Z,19.96
2022-09-22T15:43:20.382Z,20.76
2022-09-22T15:44:26.017Z,20.95
2022-09-22T15:45:28.298Z,20.25
2022-09-22T15:46:37.751Z,20.27
2022-09-22T15:47:39.496Z,20.15
2022-09-22T15:48:40.837Z,19.27
2022-09-22T15:49:44.937Z,18.59
2022-09-22T15:50:46.468Z,18.06
2022-09-22T15:51:49.332Z,19.06
2022-09-22T15:52:50.732Z,18.40
2022-09-22T15:53:53.066Z,17.86
2022-09-22T15:54:55.153Z,17.78
2022-09-22T15:55:58.622Z,18.71
2022-09-22T15:57:00.457Z,18.57
2022-09-22T15:58:07.324Z,18.25
2022-09-22T15:59:16.224Z,18.01
2022-09-22T16:00:20.939Z,18.24
2022-09-22T16:01:22.336Z,18.28
2022-09-22T16:02:25.519Z,17.91
2022-09-22T16:03:27.484Z,17.26
2022-09-22T16:04:33.819Z,17.48
2022-09-22T16:05:35.973Z,17.05
2022-09-22T16:06:39.593Z,17.25
2022-09-22T16:07:44.960Z,17.32
2022-09-22T16:08:49.023Z,17.49
2022-09-22T16:09:54.128Z,17.87
2022-09-22T16:10:56.746Z,17.87
2022-09-22T16:11:58.104Z,17.22
2022-09-22T16:12:59.543Z,16.81
2022-09-22T16:14:03.586Z,16.86
2022-09-22T16:15:06.517Z,16.96
2022-09-22T16:16:09.351Z,16.90
2022-09-22T16:17:10.879Z,16.97
2022-09-22T16:18:12.214Z,17.43
2022-09-22T16:19:13.604Z,16.93
2022-09-22T16:20:16.860Z,17.28
2022-09-22T16:21:33.182Z,17.74
2022-09-22T16:22:35.794Z,17.35
2022-09-22T16:23:37.125Z,17.23
2022-09-22T16:24:38.594Z,17.21
2022-09-22T16:25:42.040Z,17.10
2022-09-22T16:26:43.422Z,17.41
2022-09-22T16:27:48.143Z,16.92
2022-09-22T16:28:49.593Z,16.56
2022-09-22T16:29:50.965Z,16.28
2022-09-22T16:30:52.306Z,16.49
2022-09-22T16:31:54.047Z,16.53
2022-09-22T16:32:55.782Z,16.77
2022-09-22T16:34:00.160Z,16.63
2022-09-22T16:35:03.185Z,16.81
2022-09-22T16:36:05.008Z,17.16
2022-09-22T16:37:06.401Z,17.43
2022-09-22T16:38:07.853Z,17.65
2022-09-22T16:39:09.297Z,17.31
2022-09-22T16:40:10.769Z,17.17
2022-09-22T16:41:24.594Z,16.62
2022-09-22T16:42:25.969Z,16.72
2022-09-22T16:43:27.374Z,17.02
2022-09-22T16:44:31.626Z,17.44
2022-09-22T16:45:51.680Z,16.85
2022-09-22T16:46:53.029Z,16.73
2022-09-22T16:47:54.713Z,16.26
2022-09-22T16:49:08.045Z,16.40
2022-09-22T16:50:10.131Z,15.91
2022-09-22T16:51:16.226Z,16.12
2022-09-22T16:52:20.186Z,16.46
2022-09-22T16:53:27.285Z,16.97
2022-09-22T16:54:28.689Z,16.87
2022-09-22T16:55:30.206Z,16.14
2022-09-22T16:56:33.818Z,15.98
2022-09-22T16:57:35.215Z,15.63
2022-09-22T16:58:36.691Z,15.75
2022-09-22T16:59:38.022Z,15.86
2022-09-22T17:00:39.390Z,16.21
2022-09-22T17:01:43.601Z,16.45
2022-09-22T17:02:46.692Z,16.49
2022-09-22T17:03:54.464Z,16.73
2022-09-22T17:04:55.888Z,16.89
2022-09-22T17:06:08.600Z,16.85
2022-09-22T17:07:10.182Z,16.83
2022-09-22T17:08:11.537Z,16.77
2022-09-22T17:09:14.462Z,16.76
2022-09-22T17:10:16.025Z,16.65
2022-09-22T17:11:17.933Z,16.32
2022-09-22T17:12:19.960Z,16.20
2022-09-22T17:13:30.933Z,16.05
2022-09-22T17:14:32.563Z,15.94
2022-09-22T17:15:35.745Z,15.59
2022-09-22T17:16:39.608Z,15.52
2022-09-22T17:17:41.130Z,15.50
2022-09-22T17:18:42.859Z,15.44
2022-09-22T17:19:48.155Z,15.44
2022-09-22T17:20:50.807Z,15.39
2022-09-22T17:21:55.225Z,15.37
2022-09-22T17:22:57.290Z,15.09
2022-09-22T17:24:01.917Z,15.08
2022-09-22T17:31:57.342Z,14.69
